CheckWX is a tool to help pilots better visualize weather data.  It is not intended as a substitute for an official pre-flight weather briefing.

00:24:04 UTC

KEVM METAR
Eveleth-Virginia Municipal Airport
Eveleth, Minnesota, USA
Current

28 mins ago

KEVM 272356Z AUTO 26006KT 10SM SCT080 26/11 A2987 RMK AO2 T02600108 10270 20246
Observed
May-27 @ 23:56 UTC
Wind
  • 260° at 6 KTS
Visibility
Flight Rules
VFR
Cloud Levels
  • Scattered at 8,000' AGL
Temperature
26°C / 79°F
Dewpoint
11°C / 52°F
Humidity
39%
Altimeter
29.87" Hg
Pressure
1011.52 hPa
Previous

49 mins ago

KEVM 272335Z AUTO 25007KT 10SM SCT080 26/10 A2987 RMK AO2 T02640104
Observed
May-27 @ 23:35 UTC
Wind
  • 250° at 7 KTS
Visibility
Flight Rules
VFR
Cloud Levels
  • Scattered at 8,000' AGL
Temperature
26°C / 79°F
Dewpoint
10°C / 50°F
Humidity
37%
Altimeter
29.87" Hg
Pressure
1011.52 hPa
Previous

1 hour ago

KEVM 272316Z AUTO 25005KT 10SM SCT080 SCT090 26/10 A2987 RMK AO2 T02610102
Observed
May-27 @ 23:16 UTC
Wind
  • 250° at 5 KTS
Visibility
Flight Rules
VFR
Cloud Levels
  • Scattered at 8,000' AGL
  • Scattered at 9,000' AGL
Temperature
26°C / 79°F
Dewpoint
10°C / 50°F
Humidity
37%
Altimeter
29.87" Hg
Pressure
1011.52 hPa